sensor_id;sensor_type;location;lat;lon;timestamp;pressure;altitude;pressure_sealevel;temperature;humidity
63194;BME280;49289;51.670;5.624;2023-04-04T00:00:02;103144.77;;;8.10;49.79
63194;BME280;49289;51.670;5.624;2023-04-04T00:01:50;103147.45;;;8.04;49.64
63194;BME280;49289;51.670;5.624;2023-04-04T00:03:38;103149.01;;;8.05;50.08
63194;BME280;49289;51.670;5.624;2023-04-04T00:05:26;103138.83;;;8.10;50.05
63194;BME280;49289;51.670;5.624;2023-04-04T00:07:14;103152.94;;;8.19;50.09
63194;BME280;49289;51.670;5.624;2023-04-04T00:09:02;103134.78;;;8.13;50.01
63194;BME280;49289;51.670;5.624;2023-04-04T00:10:49;103152.52;;;8.22;50.01
63194;BME280;49289;51.670;5.624;2023-04-04T00:12:36;103138.53;;;8.11;50.10
63194;BME280;49289;51.670;5.624;2023-04-04T00:14:23;103140.38;;;8.12;49.98
63194;BME280;49289;51.670;5.624;2023-04-04T00:16:10;103158.13;;;8.18;49.84
63194;BME280;49289;51.670;5.624;2023-04-04T00:17:58;103136.48;;;8.05;49.88
63194;BME280;49289;51.670;5.624;2023-04-04T00:19:46;103132.36;;;8.01;49.69
63194;BME280;49289;51.670;5.624;2023-04-04T00:21:34;103135.29;;;7.89;50.23
63194;BME280;49289;51.670;5.624;2023-04-04T00:23:21;103155.12;;;8.08;50.31
63194;BME280;49289;51.670;5.624;2023-04-04T00:25:08;103156.00;;;8.13;50.11
63194;BME280;49289;51.670;5.624;2023-04-04T00:26:56;103157.28;;;8.14;50.03
63194;BME280;49289;51.670;5.624;2023-04-04T00:28:44;103138.42;;;7.93;50.79
63194;BME280;49289;51.670;5.624;2023-04-04T00:30:33;103155.09;;;8.01;50.83
63194;BME280;49289;51.670;5.624;2023-04-04T00:32:21;103134.20;;;7.86;51.17
63194;BME280;49289;51.670;5.624;2023-04-04T00:34:09;103134.24;;;7.74;50.70
63194;BME280;49289;51.670;5.624;2023-04-04T00:35:57;103155.56;;;7.86;50.63
63194;BME280;49289;51.670;5.624;2023-04-04T00:37:45;103156.41;;;7.90;50.59
63194;BME280;49289;51.670;5.624;2023-04-04T00:39:35;103141.88;;;7.73;50.71
63194;BME280;49289;51.670;5.624;2023-04-04T00:41:23;103132.19;;;7.70;51.34
63194;BME280;49289;51.670;5.624;2023-04-04T00:43:11;103131.02;;;7.69;51.40
63194;BME280;49289;51.670;5.624;2023-04-04T00:44:58;103155.91;;;7.88;51.19
63194;BME280;49289;51.670;5.624;2023-04-04T00:46:45;103149.55;;;7.88;50.83
63194;BME280;49289;51.670;5.624;2023-04-04T00:48:32;103148.52;;;7.76;51.34
63194;BME280;49289;51.670;5.624;2023-04-04T00:50:19;103149.95;;;7.79;51.43
63194;BME280;49289;51.670;5.624;2023-04-04T00:52:08;103153.18;;;7.66;52.20
63194;BME280;49289;51.670;5.624;2023-04-04T00:53:55;103157.54;;;7.69;51.49
63194;BME280;49289;51.670;5.624;2023-04-04T00:55:42;103133.57;;;7.63;50.96
63194;BME280;49289;51.670;5.624;2023-04-04T00:57:29;103126.69;;;7.60;50.73
63194;BME280;49289;51.670;5.624;2023-04-04T00:59:16;103144.45;;;7.67;50.66
63194;BME280;49289;51.670;5.624;2023-04-04T01:01:04;103137.64;;;6.61;57.24
63194;BME280;49289;51.670;5.624;2023-04-04T01:02:52;103151.08;;;7.06;54.99
63194;BME280;49289;51.670;5.624;2023-04-04T01:04:40;103143.95;;;7.37;52.88
63194;BME280;49289;51.670;5.624;2023-04-04T01:06:28;103126.95;;;7.42;52.06
63194;BME280;49289;51.670;5.624;2023-04-04T01:08:15;103140.92;;;7.66;52.47
63194;BME280;49289;51.670;5.624;2023-04-04T01:10:02;103141.58;;;7.66;52.57
63194;BME280;49289;51.670;5.624;2023-04-04T01:11:49;103122.05;;;7.45;52.63
63194;BME280;49289;51.670;5.624;2023-04-04T01:13:37;103120.05;;;7.33;52.78
63194;BME280;49289;51.670;5.624;2023-04-04T01:15:25;103117.80;;;7.31;52.11
63194;BME280;49289;51.670;5.624;2023-04-04T01:17:13;103138.34;;;7.48;52.05
63194;BME280;49289;51.670;5.624;2023-04-04T01:19:02;103131.09;;;7.57;51.74
63194;BME280;49289;51.670;5.624;2023-04-04T01:20:53;103126.75;;;7.56;51.34
63194;BME280;49289;51.670;5.624;2023-04-04T01:22:40;103124.82;;;7.55;51.56
63194;BME280;49289;51.670;5.624;2023-04-04T01:24:28;103111.88;;;7.40;51.39
63194;BME280;49289;51.670;5.624;2023-04-04T01:26:16;103134.23;;;7.58;51.27
63194;BME280;49289;51.670;5.624;2023-04-04T01:28:03;103110.53;;;7.53;51.06
63194;BME280;49289;51.670;5.624;2023-04-04T01:29:50;103118.45;;;7.45;51.19
63194;BME280;49289;51.670;5.624;2023-04-04T01:31:38;103107.27;;;7.49;51.54
63194;BME280;49289;51.670;5.624;2023-04-04T01:33:26;103114.70;;;7.48;52.20
63194;BME280;49289;51.670;5.624;2023-04-04T01:35:16;103132.75;;;7.56;52.06
63194;BME280;49289;51.670;5.624;2023-04-04T01:37:04;103111.91;;;7.52;51.68
63194;BME280;49289;51.670;5.624;2023-04-04T01:38:53;103108.56;;;7.53;51.63
63194;BME280;49289;51.670;5.624;2023-04-04T01:42:26;103109.25;;;7.54;51.21
63194;BME280;49289;51.670;5.624;2023-04-04T01:44:15;103130.00;;;7.62;51.15
63194;BME280;49289;51.670;5.624;2023-04-04T01:46:03;103132.94;;;7.58;51.34
63194;BME280;49289;51.670;5.624;2023-04-04T01:47:51;103117.09;;;7.45;51.39
63194;BME280;49289;51.670;5.624;2023-04-04T01:49:38;103133.94;;;7.51;51.52
63194;BME280;49289;51.670;5.624;2023-04-04T01:51:26;103111.73;;;7.33;51.38
63194;BME280;49289;51.670;5.624;2023-04-04T01:53:13;103128.81;;;7.37;51.06
63194;BME280;49289;51.670;5.624;2023-04-04T01:55:01;103105.41;;;7.13;51.10
63194;BME280;49289;51.670;5.624;2023-04-04T01:56:49;103100.53;;;7.01;51.39
63194;BME280;49289;51.670;5.624;2023-04-04T01:58:37;103103.47;;;7.11;51.21
63194;BME280;49289;51.670;5.624;2023-04-04T02:00:25;103124.61;;;7.22;51.32
63194;BME280;49289;51.670;5.624;2023-04-04T02:02:12;103128.11;;;7.33;51.06
63194;BME280;49289;51.670;5.624;2023-04-04T02:03:59;103106.94;;;7.15;51.33
63194;BME280;49289;51.670;5.624;2023-04-04T02:05:46;103104.06;;;7.14;51.28
63194;BME280;49289;51.670;5.624;2023-04-04T02:07:33;103102.57;;;7.16;51.00
63194;BME280;49289;51.670;5.624;2023-04-04T02:09:20;103123.69;;;7.28;50.96
63194;BME280;49289;51.670;5.624;2023-04-04T02:11:09;103108.77;;;7.16;50.88
63194;BME280;49289;51.670;5.624;2023-04-04T02:12:57;103109.03;;;7.10;50.79
63194;BME280;49289;51.670;5.624;2023-04-04T02:14:45;103132.23;;;7.22;50.72
63194;BME280;49289;51.670;5.624;2023-04-04T02:16:33;103127.02;;;7.15;50.72
63194;BME280;49289;51.670;5.624;2023-04-04T02:18:21;103105.42;;;7.15;50.63
63194;BME280;49289;51.670;5.624;2023-04-04T02:20:08;103129.06;;;7.21;50.70
63194;BME280;49289;51.670;5.624;2023-04-04T02:21:56;103136.93;;;7.27;50.80
63194;BME280;49289;51.670;5.624;2023-04-04T02:23:43;103117.55;;;7.05;51.26
63194;BME280;49289;51.670;5.624;2023-04-04T02:25:30;103130.78;;;7.12;51.37
63194;BME280;49289;51.670;5.624;2023-04-04T02:27:17;103120.33;;;7.09;51.15
63194;BME280;49289;51.670;5.624;2023-04-04T02:29:05;103129.73;;;7.15;51.28
63194;BME280;49289;51.670;5.624;2023-04-04T02:30:53;103132.98;;;7.17;51.32
63194;BME280;49289;51.670;5.624;2023-04-04T02:32:41;103127.87;;;7.10;51.37
63194;BME280;49289;51.670;5.624;2023-04-04T02:34:30;103145.72;;;7.17;51.58
63194;BME280;49289;51.670;5.624;2023-04-04T02:36:19;103120.34;;;6.92;51.68
63194;BME280;49289;51.670;5.624;2023-04-04T02:38:07;103123.45;;;6.95;51.43
63194;BME280;49289;51.670;5.624;2023-04-04T02:39:55;103145.52;;;7.03;51.43
63194;BME280;49289;51.670;5.624;2023-04-04T02:41:43;103124.45;;;6.83;51.50
63194;BME280;49289;51.670;5.624;2023-04-04T02:43:31;103139.55;;;7.05;51.03
63194;BME280;49289;51.670;5.624;2023-04-04T02:45:20;103120.23;;;6.89;51.29
63194;BME280;49289;51.670;5.624;2023-04-04T02:47:08;103115.39;;;6.85;51.19
63194;BME280;49289;51.670;5.624;2023-04-04T02:48:56;103109.77;;;6.77;50.97
63194;BME280;49289;51.670;5.624;2023-04-04T02:50:44;103113.12;;;6.84;51.24
63194;BME280;49289;51.670;5.624;2023-04-04T02:52:32;103112.52;;;6.88;51.21
63194;BME280;49289;51.670;5.624;2023-04-04T02:54:19;103130.64;;;6.94;51.11
63194;BME280;49289;51.670;5.624;2023-04-04T02:56:07;103112.62;;;6.72;51.18
63194;BME280;49289;51.670;5.624;2023-04-04T02:57:55;103130.77;;;6.87;51.40
63194;BME280;49289;51.670;5.624;2023-04-04T02:59:42;103127.41;;;6.89;51.22
63194;BME280;49289;51.670;5.624;2023-04-04T03:01:29;103114.49;;;6.78;51.20
63194;BME280;49289;51.670;5.624;2023-04-04T03:03:16;103128.55;;;6.89;51.57
63194;BME280;49289;51.670;5.624;2023-04-04T03:05:03;103128.55;;;6.81;51.97
63194;BME280;49289;51.670;5.624;2023-04-04T03:06:50;102964.94;;;5.92;51.61
63194;BME280;49289;51.670;5.624;2023-04-04T03:08:37;103106.17;;;6.74;51.51
63194;BME280;49289;51.670;5.624;2023-04-04T03:10:24;103104.77;;;6.70;51.53
63194;BME280;49289;51.670;5.624;2023-04-04T03:12:11;103126.91;;;6.77;51.95
63194;BME280;49289;51.670;5.624;2023-04-04T03:13:58;103106.25;;;6.73;51.77
63194;BME280;49289;51.670;5.624;2023-04-04T03:15:45;103126.12;;;6.79;51.96
63194;BME280;49289;51.670;5.624;2023-04-04T03:17:32;103104.05;;;6.67;52.06
63194;BME280;49289;51.670;5.624;2023-04-04T03:19:20;103118.96;;;6.78;51.74
63194;BME280;49289;51.670;5.624;2023-04-04T03:21:09;103103.02;;;6.67;51.38
63194;BME280;49289;51.670;5.624;2023-04-04T03:22:57;103100.86;;;6.73;51.39
63194;BME280;49289;51.670;5.624;2023-04-04T03:24:45;103101.42;;;6.64;51.96
63194;BME280;49289;51.670;5.624;2023-04-04T03:26:35;103117.47;;;6.76;52.07
63194;BME280;49289;51.670;5.624;2023-04-04T03:28:22;103101.14;;;6.69;52.06
63194;BME280;49289;51.670;5.624;2023-04-04T03:30:10;103125.34;;;6.82;52.00
63194;BME280;49289;51.670;5.624;2023-04-04T03:31:57;103112.34;;;6.80;52.15
63194;BME280;49289;51.670;5.624;2023-04-04T03:33:44;103092.05;;;6.63;52.03
63194;BME280;49289;51.670;5.624;2023-04-04T03:35:31;103090.27;;;6.59;51.70
63194;BME280;49289;51.670;5.624;2023-04-04T03:37:18;103113.55;;;6.72;51.74
63194;BME280;49289;51.670;5.624;2023-04-04T03:39:05;103111.93;;;6.68;52.10
63194;BME280;49289;51.670;5.624;2023-04-04T03:40:52;103113.95;;;6.63;52.33
63194;BME280;49289;51.670;5.624;2023-04-04T03:42:39;103110.36;;;6.63;52.44
63194;BME280;49289;51.670;5.624;2023-04-04T03:44:26;103088.18;;;6.46;52.83
63194;BME280;49289;51.670;5.624;2023-04-04T03:47:12;103104.78;;;6.73;51.91
63194;BME280;49289;51.670;5.624;2023-04-04T03:48:58;103104.00;;;6.63;51.78
63194;BME280;49289;51.670;5.624;2023-04-04T03:50:45;103106.38;;;6.68;51.63
63194;BME280;49289;51.670;5.624;2023-04-04T03:52:33;103106.63;;;6.56;51.39
63194;BME280;49289;51.670;5.624;2023-04-04T03:54:19;103092.34;;;6.44;51.69
63194;BME280;49289;51.670;5.624;2023-04-04T03:56:06;103090.33;;;6.44;51.98
63194;BME280;49289;51.670;5.624;2023-04-04T03:57:54;103095.95;;;6.46;52.38
63194;BME280;49289;51.670;5.624;2023-04-04T03:59:42;103089.72;;;6.35;52.54
63194;BME280;49289;51.670;5.624;2023-04-04T04:01:30;103089.41;;;6.44;52.44
63194;BME280;49289;51.670;5.624;2023-04-04T04:03:18;103088.69;;;6.44;52.57
63194;BME280;49289;51.670;5.624;2023-04-04T04:05:06;103090.22;;;6.44;52.38
63194;BME280;49289;51.670;5.624;2023-04-04T04:06:53;103085.30;;;6.53;52.22
63194;BME280;49289;51.670;5.624;2023-04-04T04:08:41;103104.44;;;6.67;52.24
63194;BME280;49289;51.670;5.624;2023-04-04T04:10:29;103100.64;;;6.53;52.62
63194;BME280;49289;51.670;5.624;2023-04-04T04:12:16;103083.77;;;6.47;52.32
63194;BME280;49289;51.670;5.624;2023-04-04T04:14:04;103102.45;;;6.55;52.09
63194;BME280;49289;51.670;5.624;2023-04-04T04:15:52;103084.47;;;6.37;51.83
63194;BME280;49289;51.670;5.624;2023-04-04T04:17:43;103113.73;;;6.40;52.01
63194;BME280;49289;51.670;5.624;2023-04-04T04:19:30;103083.13;;;6.31;52.36
63194;BME280;49289;51.670;5.624;2023-04-04T04:21:17;103099.85;;;6.33;52.71
63194;BME280;49289;51.670;5.624;2023-04-04T04:23:04;103099.89;;;6.30;52.86
63194;BME280;49289;51.670;5.624;2023-04-04T04:24:52;103078.69;;;6.22;52.44
63194;BME280;49289;51.670;5.624;2023-04-04T04:26:40;103080.36;;;6.13;52.36
63194;BME280;49289;51.670;5.624;2023-04-04T04:28:28;103101.98;;;6.28;52.13
63194;BME280;49289;51.670;5.624;2023-04-04T04:30:17;103079.96;;;6.14;52.17
63194;BME280;49289;51.670;5.624;2023-04-04T04:32:04;103099.80;;;6.29;52.03
63194;BME280;49289;51.670;5.624;2023-04-04T04:33:52;103086.42;;;6.21;52.00
63194;BME280;49289;51.670;5.624;2023-04-04T04:35:40;103086.67;;;6.27;52.26
63194;BME280;49289;51.670;5.624;2023-04-04T04:37:28;103083.10;;;6.19;52.61
63194;BME280;49289;51.670;5.624;2023-04-04T04:39:16;103082.42;;;6.08;52.79
63194;BME280;49289;51.670;5.624;2023-04-04T04:41:05;103096.98;;;6.13;52.85
63194;BME280;49289;51.670;5.624;2023-04-04T04:42:55;103075.48;;;5.92;53.00
63194;BME280;49289;51.670;5.624;2023-04-04T04:44:42;103084.48;;;5.98;53.13
63194;BME280;49289;51.670;5.624;2023-04-04T04:46:29;103076.32;;;5.88;53.14
63194;BME280;49289;51.670;5.624;2023-04-04T04:48:16;103080.06;;;6.00;53.10
63194;BME280;49289;51.670;5.624;2023-04-04T04:50:03;103084.05;;;5.94;53.23
63194;BME280;49289;51.670;5.624;2023-04-04T04:51:50;103082.97;;;5.98;53.43
63194;BME280;49289;51.670;5.624;2023-04-04T04:53:37;103085.83;;;6.02;53.15
63194;BME280;49289;51.670;5.624;2023-04-04T04:55:24;103083.98;;;5.99;53.26
63194;BME280;49289;51.670;5.624;2023-04-04T04:57:11;102921.77;;;4.95;53.26
63194;BME280;49289;51.670;5.624;2023-04-04T04:58:58;103089.58;;;5.95;53.30
63194;BME280;49289;51.670;5.624;2023-04-04T05:00:45;103100.48;;;5.96;53.16
63194;BME280;49289;51.670;5.624;2023-04-04T05:02:32;103114.17;;;6.04;53.29
63194;BME280;49289;51.670;5.624;2023-04-04T05:04:19;103094.75;;;5.98;53.10
63194;BME280;49289;51.670;5.624;2023-04-04T05:06:06;103098.28;;;5.98;53.19
63194;BME280;49289;51.670;5.624;2023-04-04T05:07:56;103117.50;;;6.03;53.35
63194;BME280;49289;51.670;5.624;2023-04-04T05:09:43;103094.69;;;5.90;53.46
63194;BME280;49289;51.670;5.624;2023-04-04T05:11:31;103112.42;;;5.92;53.93
63194;BME280;49289;51.670;5.624;2023-04-04T05:13:19;103082.39;;;5.77;53.80
63194;BME280;49289;51.670;5.624;2023-04-04T05:15:07;103119.45;;;6.03;53.54
63194;BME280;49289;51.670;5.624;2023-04-04T05:16:54;103113.87;;;6.01;53.30
63194;BME280;49289;51.670;5.624;2023-04-04T05:18:41;103121.02;;;6.01;53.16
63194;BME280;49289;51.670;5.624;2023-04-04T05:20:28;103103.98;;;5.82;53.59
63194;BME280;49289;51.670;5.624;2023-04-04T05:22:18;103098.94;;;5.74;53.68
63194;BME280;49289;51.670;5.624;2023-04-04T05:24:06;103123.28;;;5.78;53.77
63194;BME280;49289;51.670;5.624;2023-04-04T05:25:53;103122.94;;;5.82;53.64
63194;BME280;49289;51.670;5.624;2023-04-04T05:27:40;103095.71;;;5.71;53.69
63194;BME280;49289;51.670;5.624;2023-04-04T05:29:27;103101.92;;;5.74;53.66
63194;BME280;49289;51.670;5.624;2023-04-04T05:31:14;103122.94;;;5.82;53.61
63194;BME280;49289;51.670;5.624;2023-04-04T05:33:02;103128.25;;;5.80;53.98
63194;BME280;49289;51.670;5.624;2023-04-04T05:34:49;103110.22;;;5.75;53.86
63194;BME280;49289;51.670;5.624;2023-04-04T05:36:36;103132.02;;;5.86;53.96
63194;BME280;49289;51.670;5.624;2023-04-04T05:38:23;103127.20;;;5.96;53.86
63194;BME280;49289;51.670;5.624;2023-04-04T05:40:11;103106.27;;;5.81;53.81
63194;BME280;49289;51.670;5.624;2023-04-04T05:41:59;103112.51;;;5.74;53.47
63194;BME280;49289;51.670;5.624;2023-04-04T05:43:47;103120.88;;;5.82;53.23
63194;BME280;49289;51.670;5.624;2023-04-04T05:45:34;103118.48;;;5.83;53.47
63194;BME280;49289;51.670;5.624;2023-04-04T05:47:22;103144.16;;;5.92;53.82
63194;BME280;49289;51.670;5.624;2023-04-04T05:49:10;103143.34;;;6.01;53.90
63194;BME280;49289;51.670;5.624;2023-04-04T05:50:58;103127.19;;;5.93;54.01
63194;BME280;49289;51.670;5.624;2023-04-04T05:52:46;103145.70;;;6.06;53.90
63194;BME280;49289;51.670;5.624;2023-04-04T05:54:34;103120.63;;;5.97;53.93
63194;BME280;49289;51.670;5.624;2023-04-04T05:56:22;103118.88;;;5.98;53.86
63194;BME280;49289;51.670;5.624;2023-04-04T05:58:10;103120.34;;;5.98;53.50
63194;BME280;49289;51.670;5.624;2023-04-04T05:59:58;103119.52;;;6.02;53.50
63194;BME280;49289;51.670;5.624;2023-04-04T06:01:46;103117.98;;;6.16;53.15
63194;BME280;49289;51.670;5.624;2023-04-04T06:03:34;103132.90;;;6.33;53.28
63194;BME280;49289;51.670;5.624;2023-04-04T06:05:21;103134.36;;;6.38;53.08
63194;BME280;49289;51.670;5.624;2023-04-04T06:07:09;103136.02;;;6.46;53.11
63194;BME280;49289;51.670;5.624;2023-04-04T06:08:56;103135.56;;;6.60;52.80
63194;BME280;49289;51.670;5.624;2023-04-04T06:10:43;103136.45;;;6.76;52.55
63194;BME280;49289;51.670;5.624;2023-04-04T06:12:30;103119.50;;;6.67;52.92
63194;BME280;49289;51.670;5.624;2023-04-04T06:14:17;103143.22;;;6.87;52.61
63194;BME280;49289;51.670;5.624;2023-04-04T06:16:04;103126.81;;;6.85;52.46
63194;BME280;49289;51.670;5.624;2023-04-04T06:17:51;103148.53;;;7.05;52.32
63194;BME280;49289;51.670;5.624;2023-04-04T06:19:38;103129.20;;;7.01;52.29
63194;BME280;49289;51.670;5.624;2023-04-04T06:21:25;103144.96;;;7.17;52.16
63194;BME280;49289;51.670;5.624;2023-04-04T06:23:12;103129.44;;;7.17;52.04
63194;BME280;49289;51.670;5.624;2023-04-04T06:24:59;103149.77;;;7.28;52.04
63194;BME280;49289;51.670;5.624;2023-04-04T06:26:46;103148.52;;;7.30;51.92
63194;BME280;49289;51.670;5.624;2023-04-04T06:28:34;103133.27;;;7.31;51.72
63194;BME280;49289;51.670;5.624;2023-04-04T06:30:23;103131.79;;;7.31;51.35
63194;BME280;49289;51.670;5.624;2023-04-04T06:32:11;103149.73;;;7.51;51.36
63194;BME280;49289;51.670;5.624;2023-04-04T06:33:59;103127.28;;;7.51;50.96
63194;BME280;49289;51.670;5.624;2023-04-04T06:35:47;103123.66;;;7.55;50.98
63194;BME280;49289;51.670;5.624;2023-04-04T06:37:35;103145.63;;;7.77;50.92
63194;BME280;49289;51.670;5.624;2023-04-04T06:39:23;103131.92;;;7.73;50.62
63194;BME280;49289;51.670;5.624;2023-04-04T06:41:11;103125.99;;;7.69;49.89
63194;BME280;49289;51.670;5.624;2023-04-04T06:42:59;103149.83;;;7.98;49.65
63194;BME280;49289;51.670;5.624;2023-04-04T06:44:46;103132.08;;;7.92;49.49
63194;BME280;49289;51.670;5.624;2023-04-04T06:46:34;103127.19;;;7.97;49.06
63194;BME280;49289;51.670;5.624;2023-04-04T06:48:21;103147.92;;;8.14;48.65
63194;BME280;49289;51.670;5.624;2023-04-04T06:50:09;103127.72;;;8.00;48.00
63194;BME280;49289;51.670;5.624;2023-04-04T06:51:57;103136.67;;;8.11;47.96
63194;BME280;49289;51.670;5.624;2023-04-04T06:53:45;103131.35;;;8.13;47.70
63194;BME280;49289;51.670;5.624;2023-04-04T06:55:33;103126.77;;;8.43;48.08
63194;BME280;49289;51.670;5.624;2023-04-04T06:57:20;103146.90;;;8.67;48.11
63194;BME280;49289;51.670;5.624;2023-04-04T06:59:07;103135.67;;;8.20;47.70
63194;BME280;49289;51.670;5.624;2023-04-04T07:00:54;103152.13;;;8.33;47.35
63194;BME280;49289;51.670;5.624;2023-04-04T07:02:41;103132.84;;;8.21;46.80
63194;BME280;49289;51.670;5.624;2023-04-04T07:04:30;103157.63;;;8.49;47.08
63194;BME280;49289;51.670;5.624;2023-04-04T07:06:18;103159.98;;;9.01;46.06
63194;BME280;49289;51.670;5.624;2023-04-04T07:08:06;103147.88;;;8.99;45.92
63194;BME280;49289;51.670;5.624;2023-04-04T07:09:54;103158.12;;;8.86;45.61
63194;BME280;49289;51.670;5.624;2023-04-04T07:11:41;103159.59;;;9.00;45.44
63194;BME280;49289;51.670;5.624;2023-04-04T07:13:29;103162.88;;;9.07;45.43
63194;BME280;49289;51.670;5.624;2023-04-04T07:15:18;103158.97;;;9.09;45.20
63194;BME280;49289;51.670;5.624;2023-04-04T07:17:05;103137.55;;;8.95;45.29
63194;BME280;49289;51.670;5.624;2023-04-04T07:18:52;103139.86;;;9.02;44.91
63194;BME280;49289;51.670;5.624;2023-04-04T07:20:39;103140.08;;;9.29;44.51
63194;BME280;49289;51.670;5.624;2023-04-04T07:22:26;103157.00;;;9.20;44.31
63194;BME280;49289;51.670;5.624;2023-04-04T07:24:13;103155.75;;;8.94;44.84
63194;BME280;49289;51.670;5.624;2023-04-04T07:26:00;103132.56;;;9.51;43.98
63194;BME280;49289;51.670;5.624;2023-04-04T07:27:47;103126.94;;;9.67;44.16
63194;BME280;49289;51.670;5.624;2023-04-04T07:29:34;103132.13;;;9.15;44.64
63194;BME280;49289;51.670;5.624;2023-04-04T07:31:21;103149.23;;;9.47;44.19
63194;BME280;49289;51.670;5.624;2023-04-04T07:33:08;103132.34;;;9.31;44.03
63194;BME280;49289;51.670;5.624;2023-04-04T07:34:55;103130.24;;;9.60;44.37
63194;BME280;49289;51.670;5.624;2023-04-04T07:36:42;103127.94;;;9.76;43.78
63194;BME280;49289;51.670;5.624;2023-04-04T07:38:29;103123.97;;;9.90;43.80
63194;BME280;49289;51.670;5.624;2023-04-04T07:40:18;103137.95;;;10.39;42.38
63194;BME280;49289;51.670;5.624;2023-04-04T07:42:06;103143.50;;;10.47;42.27
63194;BME280;49289;51.670;5.624;2023-04-04T07:43:54;103144.84;;;10.34;42.32
63194;BME280;49289;51.670;5.624;2023-04-04T07:45:42;103140.89;;;10.59;41.99
63194;BME280;49289;51.670;5.624;2023-04-04T07:47:29;103130.77;;;10.85;41.37
63194;BME280;49289;51.670;5.624;2023-04-04T07:49:17;103144.37;;;10.56;41.84
63194;BME280;49289;51.670;5.624;2023-04-04T07:51:06;103128.02;;;10.48;41.09
63194;BME280;49289;51.670;5.624;2023-04-04T07:52:53;103131.30;;;10.70;41.32
63194;BME280;49289;51.670;5.624;2023-04-04T07:54:40;103130.52;;;10.57;40.96
63194;BME280;49289;51.670;5.624;2023-04-04T07:56:27;103133.68;;;10.77;40.58
63194;BME280;49289;51.670;5.624;2023-04-04T07:58:14;103141.26;;;10.76;40.90
63194;BME280;49289;51.670;5.624;2023-04-04T08:00:01;103143.61;;;10.92;39.97
63194;BME280;49289;51.670;5.624;2023-04-04T08:01:49;103140.00;;;10.62;40.81
63194;BME280;49289;51.670;5.624;2023-04-04T08:03:37;103138.31;;;11.21;40.47
63194;BME280;49289;51.670;5.624;2023-04-04T08:05:25;103121.67;;;11.14;39.62
63194;BME280;49289;51.670;5.624;2023-04-04T08:07:12;103124.84;;;11.22;40.32
63194;BME280;49289;51.670;5.624;2023-04-04T08:09:00;103119.17;;;11.60;38.92
63194;BME280;49289;51.670;5.624;2023-04-04T08:10:48;103145.09;;;11.24;38.51
63194;BME280;49289;51.670;5.624;2023-04-04T08:12:36;103142.38;;;11.78;39.38
63194;BME280;49289;51.670;5.624;2023-04-04T08:14:23;103132.20;;;11.33;38.78
63194;BME280;49289;51.670;5.624;2023-04-04T08:16:10;103147.22;;;11.46;39.59
63194;BME280;49289;51.670;5.624;2023-04-04T08:17:58;103148.86;;;11.20;39.16
63194;BME280;49289;51.670;5.624;2023-04-04T08:19:45;103146.06;;;11.91;38.40
63194;BME280;49289;51.670;5.624;2023-04-04T08:21:32;103147.09;;;12.10;38.31
63194;BME280;49289;51.670;5.624;2023-04-04T08:23:19;103125.39;;;11.92;37.86
63194;BME280;49289;51.670;5.624;2023-04-04T08:25:06;103127.60;;;11.98;37.27
63194;BME280;49289;51.670;5.624;2023-04-04T08:26:53;103139.09;;;12.33;36.90
63194;BME280;49289;51.670;5.624;2023-04-04T08:28:40;103143.97;;;12.00;37.09
63194;BME280;49289;51.670;5.624;2023-04-04T08:30:27;103114.00;;;12.21;36.47
63194;BME280;49289;51.670;5.624;2023-04-04T08:32:14;103134.09;;;12.36;35.42
63194;BME280;49289;51.670;5.624;2023-04-04T08:34:01;103116.33;;;12.13;35.76
63194;BME280;49289;51.670;5.624;2023-04-04T08:35:48;103127.08;;;12.59;35.52
63194;BME280;49289;51.670;5.624;2023-04-04T08:37:35;103109.97;;;12.31;36.05
63194;BME280;49289;51.670;5.624;2023-04-04T08:39:22;103109.41;;;12.56;34.88
63194;BME280;49289;51.670;5.624;2023-04-04T08:41:10;103127.70;;;12.66;34.32
63194;BME280;49289;51.670;5.624;2023-04-04T08:42:56;103111.43;;;12.27;35.08
63194;BME280;49289;51.670;5.624;2023-04-04T08:44:43;103106.44;;;12.46;33.98
63194;BME280;49289;51.670;5.624;2023-04-04T08:46:30;103106.82;;;12.61;33.28
63194;BME280;49289;51.670;5.624;2023-04-04T08:48:17;103127.09;;;12.47;34.28
63194;BME280;49289;51.670;5.624;2023-04-04T08:50:05;103124.91;;;12.52;33.96
63194;BME280;49289;51.670;5.624;2023-04-04T08:51:51;103103.47;;;12.21;34.38
63194;BME280;49289;51.670;5.624;2023-04-04T08:53:38;103117.19;;;12.27;34.28
63194;BME280;49289;51.670;5.624;2023-04-04T08:55:25;103117.25;;;12.77;33.88
63194;BME280;49289;51.670;5.624;2023-04-04T08:57:12;103099.34;;;12.63;32.23
63194;BME280;49289;51.670;5.624;2023-04-04T08:58:59;103117.16;;;12.98;32.16
63194;BME280;49289;51.670;5.624;2023-04-04T09:00:47;103112.88;;;12.85;32.47
63194;BME280;49289;51.670;5.624;2023-04-04T09:02:36;103097.88;;;13.02;32.19
63194;BME280;49289;51.670;5.624;2023-04-04T09:04:23;103099.81;;;12.64;30.20
63194;BME280;49289;51.670;5.624;2023-04-04T09:06:11;103117.52;;;13.23;31.95
63194;BME280;49289;51.670;5.624;2023-04-04T09:07:58;103119.25;;;13.02;31.38
63194;BME280;49289;51.670;5.624;2023-04-04T09:09:47;103103.63;;;13.59;32.83
63194;BME280;49289;51.670;5.624;2023-04-04T09:11:35;103124.92;;;13.35;31.82
63194;BME280;49289;51.670;5.624;2023-04-04T09:13:23;103120.09;;;12.69;32.52
63194;BME280;49289;51.670;5.624;2023-04-04T09:15:11;103116.25;;;12.86;32.12
63194;BME280;49289;51.670;5.624;2023-04-04T09:16:58;103128.69;;;12.92;31.85
63194;BME280;49289;51.670;5.624;2023-04-04T09:18:46;103107.96;;;12.80;32.51
63194;BME280;49289;51.670;5.624;2023-04-04T09:20:48;103118.91;;;13.17;32.86
63194;BME280;49289;51.670;5.624;2023-04-04T09:22:36;103120.93;;;13.36;32.72
63194;BME280;49289;51.670;5.624;2023-04-04T09:24:24;103109.89;;;14.05;31.02
63194;BME280;49289;51.670;5.624;2023-04-04T09:26:12;103115.23;;;14.34;32.18
63194;BME280;49289;51.670;5.624;2023-04-04T09:28:00;103109.66;;;14.33;31.45
63194;BME280;49289;51.670;5.624;2023-04-04T09:29:47;103094.51;;;14.44;32.05